Αρχική σελίδα
METAR-TAF:

METAR-TAF

Αεροδρόμια :

Κουρασάο, Ολλανδικές Αντίλλες

γεωγραφικό πλάτος: 12-12N, γεωγραφικό μήκος: 068-58W, υψόμετρο: 9 μ

Παρών καιρός

Η αναφορά έγινε 56 λεπτά πριν, στις 04:00 UTC
Άνεμος 10 kt από Α/NA
Θερμοκρασία 26°C
Υγρασία 70%
Πίεση 1016 hPa
Αρκετά νέφη σε ύψος 2300 πόδια

METAR: TNCC 110400Z AUTO 12010KT //// BKN023 26/20 Q1016 NOSIG

Χρόνος: 00:56 (04:56 UTC)

Πρόγνωση Καιρού

Η αναφορά έγινε 6 ώρες και 56 λεπτά πριν, στις 22:00 UTC
Η πρόγνωση ισχύει από τις 11 στις 00 UTC έως τις 11 στις 24 UTC
Άνεμος 10 kt από Α/NA
Ορατότητα 10 χλμ και άνω
Λίγα νέφη σε ύψος 2000 πόδια

TAF: TNCC 102200Z 1100/1124 11010KT 9999 FEW020

Μετεωρολογικές αναφορές και προγνώσεις για περισσότερα από 4000 αεροδρόμια (δελτία METAR και TAF).

Οι διαθέσιμοι σταθμοί απεικονίζονται στο χάρτη με κίτρινες και κόκκινες κουκκίδες.

Μετακινήστε το ποντίκι πάνω από τις κουκκίδες για να δείτε το όνομα του σταθμού.

Στη συνέχεια, κάντε κλικ για να δείτε τις μετεωρολογικές αναφορές και τις προγνώσεις καιρού.

Για να αλλάξετε το χάρτη: κάντε κλικ στα πράσινα κουμπιά με τον μαύρο σταυρό για να ζουμάρετε, στο πράσινο κουμπί με την παύλα για να αφαιρέσετε το ζουμ ή στα πράσινα βέλη για να αντιπαραβάλλετε χάρτες.


METAR-TAF: